sensor_id;sensor_type;location;lat;lon;timestamp;pressure;altitude;pressure_sealevel;temperature;humidity
25650;BME280;13505;45.196;5.696;2024-03-17T05:33:48;99812.00;;;10.42;72.43
25650;BME280;13505;45.196;5.696;2024-03-17T05:38:39;99817.13;;;10.47;71.80
25650;BME280;13505;45.196;5.696;2024-03-17T05:43:36;99809.94;;;10.51;71.16
25650;BME280;13505;45.196;5.696;2024-03-17T05:48:27;99831.00;;;10.52;70.84
25650;BME280;13505;45.196;5.696;2024-03-17T05:53:18;99824.88;;;10.25;72.25
25650;BME280;13505;45.196;5.696;2024-03-17T05:58:09;99830.72;;;10.60;71.37
25650;BME280;13505;45.196;5.696;2024-03-17T06:02:59;99834.63;;;10.23;73.86
25650;BME280;13505;45.196;5.696;2024-03-17T06:07:50;99829.47;;;10.70;72.28
25650;BME280;13505;45.196;5.696;2024-03-17T06:12:40;99828.66;;;10.43;74.44
25650;BME280;13505;45.196;5.696;2024-03-17T06:17:30;99829.47;;;10.70;72.89
25650;BME280;13505;45.196;5.696;2024-03-17T06:22:21;99840.19;;;10.66;73.75
25650;BME280;13505;45.196;5.696;2024-03-17T06:27:11;99846.22;;;10.44;75.13
25650;BME280;13505;45.196;5.696;2024-03-17T06:32:01;99850.31;;;10.53;76.22
25650;BME280;13505;45.196;5.696;2024-03-17T06:36:52;99842.19;;;10.59;74.06
25650;BME280;13505;45.196;5.696;2024-03-17T06:41:42;99846.66;;;10.57;73.21
25650;BME280;13505;45.196;5.696;2024-03-17T06:46:33;99823.78;;;10.57;73.57
25650;BME280;13505;45.196;5.696;2024-03-17T06:51:23;99805.63;;;10.23;73.39
25650;BME280;13505;45.196;5.696;2024-03-17T06:56:13;99821.94;;;10.59;71.81
25650;BME280;13505;45.196;5.696;2024-03-17T07:01:04;99822.22;;;10.25;72.92
25650;BME280;13505;45.196;5.696;2024-03-17T07:05:55;99827.13;;;10.63;72.41
25650;BME280;13505;45.196;5.696;2024-03-17T07:11:15;99812.09;;;10.88;71.91
25650;BME280;13505;45.196;5.696;2024-03-17T07:16:07;99815.69;;;11.34;70.25
25650;BME280;13505;45.196;5.696;2024-03-17T07:20:59;99833.34;;;11.55;68.34
25650;BME280;13505;45.196;5.696;2024-03-17T07:25:58;99851.84;;;11.55;68.68
25650;BME280;13505;45.196;5.696;2024-03-17T07:30:53;99862.78;;;11.68;67.57
25650;BME280;13505;45.196;5.696;2024-03-17T07:36:02;99872.97;;;11.55;68.00
25650;BME280;13505;45.196;5.696;2024-03-17T07:41:03;99871.34;;;11.53;68.81
25650;BME280;13505;45.196;5.696;2024-03-17T07:50:59;99878.16;;;10.87;70.79
25650;BME280;13505;45.196;5.696;2024-03-17T07:55:57;99876.59;;;10.81;70.05
25650;BME280;13505;45.196;5.696;2024-03-17T08:00:49;99877.50;;;10.80;70.71
25650;BME280;13505;45.196;5.696;2024-03-17T08:05:39;99869.09;;;10.94;70.24
25650;BME280;13505;45.196;5.696;2024-03-17T08:10:29;99860.28;;;11.65;68.31
25650;BME280;13505;45.196;5.696;2024-03-17T08:15:19;99849.06;;;11.81;67.33
25650;BME280;13505;45.196;5.696;2024-03-17T08:20:10;99847.13;;;12.08;67.20
25650;BME280;13505;45.196;5.696;2024-03-17T08:25:01;99840.13;;;12.28;65.89
25650;BME280;13505;45.196;5.696;2024-03-17T08:29:51;99828.28;;;12.57;65.67
25650;BME280;13505;45.196;5.696;2024-03-17T08:34:41;99824.94;;;12.12;66.35
25650;BME280;13505;45.196;5.696;2024-03-17T08:39:32;99822.16;;;12.16;67.05
25650;BME280;13505;45.196;5.696;2024-03-17T08:44:22;99810.78;;;12.55;66.98
25650;BME280;13505;45.196;5.696;2024-03-17T08:49:12;99813.66;;;12.69;67.55
25650;BME280;13505;45.196;5.696;2024-03-17T08:54:03;99802.13;;;12.31;70.20
25650;BME280;13505;45.196;5.696;2024-03-17T08:58:53;99801.34;;;12.68;69.63
25650;BME280;13505;45.196;5.696;2024-03-17T09:03:43;99799.06;;;12.61;70.05
25650;BME280;13505;45.196;5.696;2024-03-17T09:08:34;99795.16;;;12.28;70.29
25650;BME280;13505;45.196;5.696;2024-03-17T09:13:25;99794.81;;;12.56;68.77
25650;BME280;13505;45.196;5.696;2024-03-17T09:18:16;99783.56;;;12.72;67.73
25650;BME280;13505;45.196;5.696;2024-03-17T09:23:06;99765.31;;;13.23;65.81
25650;BME280;13505;45.196;5.696;2024-03-17T09:27:56;99760.22;;;13.75;64.13
25650;BME280;13505;45.196;5.696;2024-03-17T09:32:48;99754.00;;;13.39;63.14
25650;BME280;13505;45.196;5.696;2024-03-17T09:37:38;99744.16;;;14.13;61.52
25650;BME280;13505;45.196;5.696;2024-03-17T09:42:29;99736.91;;;13.99;60.90
25650;BME280;13505;45.196;5.696;2024-03-17T09:47:20;99738.59;;;14.35;59.08
25650;BME280;13505;45.196;5.696;2024-03-17T09:57:16;99710.47;;;14.83;58.75
25650;BME280;13505;45.196;5.696;2024-03-17T10:02:16;99723.94;;;15.58;56.11
25650;BME280;13505;45.196;5.696;2024-03-17T10:07:08;99716.88;;;15.27;55.00
25650;BME280;13505;45.196;5.696;2024-03-17T10:11:58;99706.00;;;15.62;56.29
25650;BME280;13505;45.196;5.696;2024-03-17T10:16:48;99708.50;;;15.80;53.82
25650;BME280;13505;45.196;5.696;2024-03-17T10:21:43;99702.25;;;15.81;54.02
25650;BME280;13505;45.196;5.696;2024-03-17T10:31:31;99704.72;;;16.58;52.14
25650;BME280;13505;45.196;5.696;2024-03-17T10:36:22;99685.59;;;16.66;51.92
25650;BME280;13505;45.196;5.696;2024-03-17T10:41:12;99684.00;;;16.19;51.06
25650;BME280;13505;45.196;5.696;2024-03-17T10:46:02;99681.75;;;16.42;51.44
25650;BME280;13505;45.196;5.696;2024-03-17T10:50:56;99673.22;;;16.79;52.23
25650;BME280;13505;45.196;5.696;2024-03-17T10:55:49;99672.09;;;16.69;50.09
25650;BME280;13505;45.196;5.696;2024-03-17T11:00:42;99667.56;;;16.27;49.62
25650;BME280;13505;45.196;5.696;2024-03-17T11:05:32;99669.25;;;17.14;48.29
25650;BME280;13505;45.196;5.696;2024-03-17T11:10:34;99654.06;;;17.29;47.77
25650;BME280;13505;45.196;5.696;2024-03-17T11:20:20;99626.84;;;17.90;46.70
25650;BME280;13505;45.196;5.696;2024-03-17T11:35:34;99619.06;;;19.25;44.58
25650;BME280;13505;45.196;5.696;2024-03-17T11:40:25;99619.03;;;17.74;46.32
25650;BME280;13505;45.196;5.696;2024-03-17T11:45:15;99603.59;;;18.55;45.74
25650;BME280;13505;45.196;5.696;2024-03-17T11:50:08;99608.16;;;17.90;45.88
25650;BME280;13505;45.196;5.696;2024-03-17T11:55:00;99592.34;;;18.63;45.36
25650;BME280;13505;45.196;5.696;2024-03-17T11:59:51;99598.34;;;19.16;44.63
25650;BME280;13505;45.196;5.696;2024-03-17T12:04:42;99591.16;;;18.30;45.91
25650;BME280;13505;45.196;5.696;2024-03-17T12:09:32;99586.94;;;19.14;44.95
25650;BME280;13505;45.196;5.696;2024-03-17T12:14:24;99582.75;;;18.85;44.78
25650;BME280;13505;45.196;5.696;2024-03-17T12:19:16;99572.78;;;19.47;45.58
25650;BME280;13505;45.196;5.696;2024-03-17T12:24:14;99576.38;;;19.23;45.16
25650;BME280;13505;45.196;5.696;2024-03-17T12:29:21;99562.22;;;19.46;43.44
25650;BME280;13505;45.196;5.696;2024-03-17T12:34:12;99556.56;;;19.73;43.47
25650;BME280;13505;45.196;5.696;2024-03-17T12:39:12;99549.00;;;19.67;43.28
25650;BME280;13505;45.196;5.696;2024-03-17T12:44:21;99553.47;;;19.44;42.81
25650;BME280;13505;45.196;5.696;2024-03-17T12:49:11;99534.44;;;19.13;42.78
25650;BME280;13505;45.196;5.696;2024-03-17T12:54:14;99530.81;;;19.25;42.67
25650;BME280;13505;45.196;5.696;2024-03-17T12:59:07;99534.19;;;19.16;43.52
25650;BME280;13505;45.196;5.696;2024-03-17T13:04:18;99531.47;;;19.40;42.37
25650;BME280;13505;45.196;5.696;2024-03-17T13:09:08;99517.84;;;19.55;40.91
25650;BME280;13505;45.196;5.696;2024-03-17T13:14:00;99500.34;;;19.50;43.50
25650;BME280;13505;45.196;5.696;2024-03-17T13:18:50;99505.97;;;20.04;41.19
25650;BME280;13505;45.196;5.696;2024-03-17T13:23:40;99498.53;;;20.08;42.43
25650;BME280;13505;45.196;5.696;2024-03-17T13:28:31;99498.41;;;20.10;41.34
25650;BME280;13505;45.196;5.696;2024-03-17T13:33:21;99493.25;;;20.29;41.08
25650;BME280;13505;45.196;5.696;2024-03-17T13:38:13;99499.56;;;20.40;40.85
25650;BME280;13505;45.196;5.696;2024-03-17T13:43:03;99495.47;;;20.24;39.74
25650;BME280;13505;45.196;5.696;2024-03-17T13:47:58;99496.69;;;20.08;39.72
25650;BME280;13505;45.196;5.696;2024-03-17T13:52:49;99503.38;;;20.26;39.37
25650;BME280;13505;45.196;5.696;2024-03-17T13:57:41;99495.25;;;20.16;39.97
25650;BME280;13505;45.196;5.696;2024-03-17T14:02:31;99502.06;;;19.97;40.83
25650;BME280;13505;45.196;5.696;2024-03-17T14:07:22;99508.38;;;20.19;39.74
25650;BME280;13505;45.196;5.696;2024-03-17T14:12:12;99501.91;;;20.21;40.44
25650;BME280;13505;45.196;5.696;2024-03-17T14:17:04;99491.56;;;20.28;39.32
25650;BME280;13505;45.196;5.696;2024-03-17T14:21:54;99494.88;;;20.20;39.62
25650;BME280;13505;45.196;5.696;2024-03-17T14:26:44;99502.28;;;20.17;38.59
25650;BME280;13505;45.196;5.696;2024-03-17T14:31:35;99492.94;;;20.11;39.41
25650;BME280;13505;45.196;5.696;2024-03-17T14:36:27;99486.19;;;20.28;38.62
25650;BME280;13505;45.196;5.696;2024-03-17T14:41:18;99486.47;;;20.25;37.37
25650;BME280;13505;45.196;5.696;2024-03-17T14:46:08;99489.88;;;20.16;37.33
25650;BME280;13505;45.196;5.696;2024-03-17T14:51:03;99493.31;;;20.06;36.96
25650;BME280;13505;45.196;5.696;2024-03-17T14:55:53;99484.19;;;20.09;37.18
25650;BME280;13505;45.196;5.696;2024-03-17T15:00:43;99475.03;;;20.12;37.56
25650;BME280;13505;45.196;5.696;2024-03-17T15:05:34;99451.78;;;20.12;36.72
25650;BME280;13505;45.196;5.696;2024-03-17T15:10:24;99442.03;;;20.22;37.19
25650;BME280;13505;45.196;5.696;2024-03-17T15:15:16;99450.31;;;20.19;37.33
25650;BME280;13505;45.196;5.696;2024-03-17T15:20:07;99451.09;;;19.99;37.90
25650;BME280;13505;45.196;5.696;2024-03-17T15:25:07;99452.66;;;19.78;36.56
25650;BME280;13505;45.196;5.696;2024-03-17T15:29:59;99467.75;;;19.45;37.49
25650;BME280;13505;45.196;5.696;2024-03-17T15:34:49;99450.97;;;19.32;37.64
25650;BME280;13505;45.196;5.696;2024-03-17T15:39:40;99446.84;;;19.50;37.24
25650;BME280;13505;45.196;5.696;2024-03-17T15:44:30;99438.94;;;19.72;37.46
25650;BME280;13505;45.196;5.696;2024-03-17T15:49:20;99443.53;;;19.81;37.69
25650;BME280;13505;45.196;5.696;2024-03-17T15:54:11;99445.97;;;19.84;36.92
25650;BME280;13505;45.196;5.696;2024-03-17T15:59:01;99444.16;;;19.73;37.21
25650;BME280;13505;45.196;5.696;2024-03-17T16:03:52;99439.66;;;19.39;38.94
25650;BME280;13505;45.196;5.696;2024-03-17T16:08:44;99443.56;;;19.35;38.57
25650;BME280;13505;45.196;5.696;2024-03-17T16:13:37;99451.34;;;19.38;39.06
25650;BME280;13505;45.196;5.696;2024-03-17T16:18:29;99456.44;;;19.53;38.71
25650;BME280;13505;45.196;5.696;2024-03-17T16:23:20;99453.28;;;19.48;37.44
25650;BME280;13505;45.196;5.696;2024-03-17T16:28:11;99453.28;;;19.25;38.67
25650;BME280;13505;45.196;5.696;2024-03-17T16:33:01;99451.44;;;19.14;38.26
25650;BME280;13505;45.196;5.696;2024-03-17T16:37:51;99453.25;;;19.14;39.49
25650;BME280;13505;45.196;5.696;2024-03-17T16:42:42;99448.03;;;19.12;39.90
25650;BME280;13505;45.196;5.696;2024-03-17T16:47:32;99465.56;;;18.92;42.71
25650;BME280;13505;45.196;5.696;2024-03-17T16:52:26;99463.78;;;18.68;44.51
25650;BME280;13505;45.196;5.696;2024-03-17T16:57:16;99473.19;;;18.49;44.76
25650;BME280;13505;45.196;5.696;2024-03-17T17:02:15;99488.63;;;18.33;46.96
25650;BME280;13505;45.196;5.696;2024-03-17T17:07:05;99492.28;;;18.32;47.71
25650;BME280;13505;45.196;5.696;2024-03-17T17:11:56;99496.47;;;18.23;48.13
25650;BME280;13505;45.196;5.696;2024-03-17T17:16:46;99492.22;;;18.07;48.67
25650;BME280;13505;45.196;5.696;2024-03-17T17:21:37;99487.97;;;17.92;50.05
25650;BME280;13505;45.196;5.696;2024-03-17T17:26:28;99493.66;;;17.74;51.61
25650;BME280;13505;45.196;5.696;2024-03-17T17:31:18;99495.28;;;17.51;53.13
25650;BME280;13505;45.196;5.696;2024-03-17T17:36:09;99501.03;;;17.57;53.29
25650;BME280;13505;45.196;5.696;2024-03-17T17:40:59;99502.31;;;17.52;53.52
25650;BME280;13505;45.196;5.696;2024-03-17T17:45:54;99508.72;;;17.36;54.60
25650;BME280;13505;45.196;5.696;2024-03-17T17:50:45;99514.78;;;17.25;56.54
25650;BME280;13505;45.196;5.696;2024-03-17T17:55:35;99521.69;;;17.15;57.32
25650;BME280;13505;45.196;5.696;2024-03-17T18:00:25;99522.72;;;16.99;60.02
25650;BME280;13505;45.196;5.696;2024-03-17T18:05:16;99533.69;;;16.95;61.61
25650;BME280;13505;45.196;5.696;2024-03-17T18:10:07;99534.41;;;16.84;64.02
25650;BME280;13505;45.196;5.696;2024-03-17T18:14:57;99537.78;;;16.73;67.22
25650;BME280;13505;45.196;5.696;2024-03-17T18:19:48;99548.81;;;16.67;66.87
25650;BME280;13505;45.196;5.696;2024-03-17T18:24:38;99551.03;;;16.60;68.13
25650;BME280;13505;45.196;5.696;2024-03-17T18:29:28;99554.09;;;16.54;69.26
25650;BME280;13505;45.196;5.696;2024-03-17T18:34:19;99562.47;;;16.48;71.45
25650;BME280;13505;45.196;5.696;2024-03-17T18:39:09;99558.81;;;16.36;73.63
25650;BME280;13505;45.196;5.696;2024-03-17T18:43:59;99555.59;;;16.30;74.60
25650;BME280;13505;45.196;5.696;2024-03-17T18:48:50;99556.25;;;16.19;75.62
25650;BME280;13505;45.196;5.696;2024-03-17T18:53:41;99571.88;;;16.11;74.16
25650;BME280;13505;45.196;5.696;2024-03-17T18:58:31;99579.28;;;16.06;78.13
25650;BME280;13505;45.196;5.696;2024-03-17T19:03:24;99575.69;;;15.93;79.59
25650;BME280;13505;45.196;5.696;2024-03-17T19:08:17;99579.09;;;15.95;78.24
25650;BME280;13505;45.196;5.696;2024-03-17T19:13:10;99579.38;;;15.90;79.28
25650;BME280;13505;45.196;5.696;2024-03-17T19:18:00;99588.47;;;15.86;80.41
25650;BME280;13505;45.196;5.696;2024-03-17T19:22:51;99586.38;;;15.76;81.85
25650;BME280;13505;45.196;5.696;2024-03-17T19:27:42;99580.56;;;15.70;81.38
25650;BME280;13505;45.196;5.696;2024-03-17T19:32:34;99584.47;;;15.64;81.76
25650;BME280;13505;45.196;5.696;2024-03-17T19:37:26;99589.94;;;15.61;83.75
25650;BME280;13505;45.196;5.696;2024-03-17T19:42:16;99588.25;;;15.60;82.58
25650;BME280;13505;45.196;5.696;2024-03-17T19:47:07;99581.31;;;15.57;82.87
25650;BME280;13505;45.196;5.696;2024-03-17T19:51:57;99582.16;;;15.58;83.42
25650;BME280;13505;45.196;5.696;2024-03-17T19:56:48;99592.22;;;15.53;82.56
25650;BME280;13505;45.196;5.696;2024-03-17T20:01:38;99574.19;;;15.43;86.85
25650;BME280;13505;45.196;5.696;2024-03-17T20:06:28;99578.53;;;15.44;85.04
25650;BME280;13505;45.196;5.696;2024-03-17T20:11:19;99571.88;;;15.37;84.31
25650;BME280;13505;45.196;5.696;2024-03-17T20:16:21;99570.97;;;15.22;84.45
25650;BME280;13505;45.196;5.696;2024-03-17T20:21:15;99576.63;;;15.32;85.19
25650;BME280;13505;45.196;5.696;2024-03-17T20:26:05;99563.53;;;15.13;85.64
25650;BME280;13505;45.196;5.696;2024-03-17T20:30:55;99570.75;;;15.11;87.07
25650;BME280;13505;45.196;5.696;2024-03-17T20:35:46;99566.28;;;14.81;88.15
25650;BME280;13505;45.196;5.696;2024-03-17T20:40:39;99570.91;;;14.61;88.83
25650;BME280;13505;45.196;5.696;2024-03-17T20:45:29;99571.22;;;14.71;88.76
25650;BME280;13505;45.196;5.696;2024-03-17T20:50:21;99565.31;;;14.98;86.98
25650;BME280;13505;45.196;5.696;2024-03-17T20:55:12;99568.50;;;14.88;88.59
25650;BME280;13505;45.196;5.696;2024-03-17T21:00:03;99562.59;;;14.83;87.01
25650;BME280;13505;45.196;5.696;2024-03-17T21:04:58;99555.81;;;14.93;86.84
25650;BME280;13505;45.196;5.696;2024-03-17T21:09:48;99546.34;;;14.73;87.95
25650;BME280;13505;45.196;5.696;2024-03-17T21:14:39;99554.63;;;14.67;88.67
25650;BME280;13505;45.196;5.696;2024-03-17T21:19:29;99549.66;;;14.93;86.19
25650;BME280;13505;45.196;5.696;2024-03-17T21:24:19;99544.41;;;14.91;86.09
25650;BME280;13505;45.196;5.696;2024-03-17T21:29:10;99537.91;;;14.97;85.10
25650;BME280;13505;45.196;5.696;2024-03-17T21:34:01;99539.38;;;14.87;86.63
25650;BME280;13505;45.196;5.696;2024-03-17T21:38:51;99535.97;;;14.85;86.87
25650;BME280;13505;45.196;5.696;2024-03-17T21:43:42;99541.84;;;14.90;87.09
25650;BME280;13505;45.196;5.696;2024-03-17T21:48:32;99539.06;;;14.77;87.21
25650;BME280;13505;45.196;5.696;2024-03-17T21:53:22;99526.28;;;14.84;85.91
25650;BME280;13505;45.196;5.696;2024-03-17T21:58:13;99512.81;;;14.87;85.82
25650;BME280;13505;45.196;5.696;2024-03-17T22:03:03;99514.06;;;14.96;85.76
25650;BME280;13505;45.196;5.696;2024-03-17T22:07:53;99512.56;;;14.91;86.15
25650;BME280;13505;45.196;5.696;2024-03-17T22:12:45;99505.81;;;14.86;87.04
25650;BME280;13505;45.196;5.696;2024-03-17T22:17:36;99512.66;;;14.74;89.12
25650;BME280;13505;45.196;5.696;2024-03-17T22:22:28;99506.34;;;14.60;89.51
25650;BME280;13505;45.196;5.696;2024-03-17T22:27:18;99509.47;;;14.83;88.29
25650;BME280;13505;45.196;5.696;2024-03-17T22:32:09;99500.84;;;14.79;89.64
25650;BME280;13505;45.196;5.696;2024-03-17T22:36:59;99488.06;;;14.70;90.31
25650;BME280;13505;45.196;5.696;2024-03-17T22:41:50;99495.91;;;14.73;89.13
25650;BME280;13505;45.196;5.696;2024-03-17T22:46:40;99488.16;;;14.85;87.58
25650;BME280;13505;45.196;5.696;2024-03-17T22:51:30;99489.44;;;14.77;85.78
25650;BME280;13505;45.196;5.696;2024-03-17T22:56:21;99497.50;;;14.76;85.14
